sensor_id;sensor_type;location;lat;lon;timestamp;P1;durP1;ratioP1;P2;durP2;ratioP2
17670;SDS011;8954;48.694;8.940;2023-09-12T06:56:44;291.80;;;103.43;;
17670;SDS011;8954;48.694;8.940;2023-09-12T06:59:10;297.07;;;110.53;;
17670;SDS011;8954;48.694;8.940;2023-09-12T07:01:36;294.13;;;111.20;;
17670;SDS011;8954;48.694;8.940;2023-09-12T07:04:02;296.60;;;117.50;;
17670;SDS011;8954;48.694;8.940;2023-09-12T07:06:28;295.17;;;114.03;;
17670;SDS011;8954;48.694;8.940;2023-09-12T07:08:53;297.07;;;120.07;;
17670;SDS011;8954;48.694;8.940;2023-09-12T07:11:19;297.00;;;119.63;;
17670;SDS011;8954;48.694;8.940;2023-09-12T07:13:44;296.27;;;124.13;;
17670;SDS011;8954;48.694;8.940;2023-09-12T07:16:10;300.27;;;128.03;;
17670;SDS011;8954;48.694;8.940;2023-09-12T07:18:36;300.27;;;128.77;;
17670;SDS011;8954;48.694;8.940;2023-09-12T07:21:03;306.90;;;146.33;;
17670;SDS011;8954;48.694;8.940;2023-09-12T07:23:29;312.60;;;141.57;;
17670;SDS011;8954;48.694;8.940;2023-09-12T07:25:55;308.43;;;141.20;;
17670;SDS011;8954;48.694;8.940;2023-09-12T07:28:24;311.13;;;151.83;;
17670;SDS011;8954;48.694;8.940;2023-09-12T07:30:51;312.63;;;162.37;;
17670;SDS011;8954;48.694;8.940;2023-09-12T07:33:16;308.23;;;150.67;;
17670;SDS011;8954;48.694;8.940;2023-09-12T07:35:42;315.27;;;168.47;;
17670;SDS011;8954;48.694;8.940;2023-09-12T07:38:08;313.50;;;164.17;;
17670;SDS011;8954;48.694;8.940;2023-09-12T07:40:33;315.00;;;181.55;;
17670;SDS011;8954;48.694;8.940;2023-09-12T07:42:59;307.67;;;175.53;;
17670;SDS011;8954;48.694;8.940;2023-09-12T07:45:24;309.90;;;181.70;;
17670;SDS011;8954;48.694;8.940;2023-09-12T07:47:50;305.37;;;178.47;;
17670;SDS011;8954;48.694;8.940;2023-09-12T07:50:15;307.27;;;183.20;;
17670;SDS011;8954;48.694;8.940;2023-09-12T07:52:41;305.17;;;182.47;;
17670;SDS011;8954;48.694;8.940;2023-09-12T07:55:07;305.43;;;181.67;;
17670;SDS011;8954;48.694;8.940;2023-09-12T07:57:33;304.57;;;175.40;;
17670;SDS011;8954;48.694;8.940;2023-09-12T07:59:59;306.00;;;181.03;;
17670;SDS011;8954;48.694;8.940;2023-09-12T08:02:25;307.93;;;180.77;;
17670;SDS011;8954;48.694;8.940;2023-09-12T08:04:51;308.77;;;179.10;;
17670;SDS011;8954;48.694;8.940;2023-09-12T08:07:17;310.43;;;180.13;;
17670;SDS011;8954;48.694;8.940;2023-09-12T08:09:53;303.42;;;222.07;;
17670;SDS011;8954;48.694;8.940;2023-09-12T08:12:20;296.83;;;181.60;;
17670;SDS011;8954;48.694;8.940;2023-09-12T08:14:47;294.87;;;171.47;;
17670;SDS011;8954;48.694;8.940;2023-09-12T08:17:13;295.97;;;184.90;;
17670;SDS011;8954;48.694;8.940;2023-09-12T08:19:39;288.63;;;183.40;;
17670;SDS011;8954;48.694;8.940;2023-09-12T08:22:05;291.50;;;208.13;;
17670;SDS011;8954;48.694;8.940;2023-09-12T08:24:32;298.43;;;251.07;;
17670;SDS011;8954;48.694;8.940;2023-09-12T08:26:58;312.80;;;279.20;;
17670;SDS011;8954;48.694;8.940;2023-09-12T08:29:24;331.67;;;297.98;;
17670;SDS011;8954;48.694;8.940;2023-09-12T08:31:50;365.77;;;331.75;;
17670;SDS011;8954;48.694;8.940;2023-09-12T08:34:17;375.52;;;341.42;;
17670;SDS011;8954;48.694;8.940;2023-09-12T08:36:43;431.33;;;395.63;;
17670;SDS011;8954;48.694;8.940;2023-09-12T08:39:11;459.52;;;423.10;;
17670;SDS011;8954;48.694;8.940;2023-09-12T08:41:37;489.13;;;452.00;;
17670;SDS011;8954;48.694;8.940;2023-09-12T08:44:04;472.48;;;436.15;;
17670;SDS011;8954;48.694;8.940;2023-09-12T08:46:30;518.67;;;481.23;;
17670;SDS011;8954;48.694;8.940;2023-09-12T08:48:56;491.00;;;454.33;;
17670;SDS011;8954;48.694;8.940;2023-09-12T08:51:23;525.95;;;488.35;;
17670;SDS011;8954;48.694;8.940;2023-09-12T08:53:49;547.97;;;509.77;;
17670;SDS011;8954;48.694;8.940;2023-09-12T08:56:15;538.45;;;500.75;;
17670;SDS011;8954;48.694;8.940;2023-09-12T08:58:42;556.05;;;517.72;;
17670;SDS011;8954;48.694;8.940;2023-09-12T09:01:09;550.92;;;512.95;;
17670;SDS011;8954;48.694;8.940;2023-09-12T09:03:36;564.95;;;526.60;;
17670;SDS011;8954;48.694;8.940;2023-09-12T09:06:02;564.47;;;525.97;;
17670;SDS011;8954;48.694;8.940;2023-09-12T09:08:29;566.72;;;528.45;;
17670;SDS011;8954;48.694;8.940;2023-09-12T09:10:57;587.85;;;549.03;;
17670;SDS011;8954;48.694;8.940;2023-09-12T09:13:24;564.92;;;526.95;;
17670;SDS011;8954;48.694;8.940;2023-09-12T09:16:08;577.80;;;539.30;;
17670;SDS011;8954;48.694;8.940;2023-09-12T09:21:21;572.33;;;534.03;;
17670;SDS011;8954;48.694;8.940;2023-09-12T09:23:52;573.65;;;535.40;;
17670;SDS011;8954;48.694;8.940;2023-09-12T09:26:18;592.45;;;553.63;;
17670;SDS011;8954;48.694;8.940;2023-09-12T09:28:44;576.47;;;538.17;;
17670;SDS011;8954;48.694;8.940;2023-09-12T09:31:11;572.75;;;534.30;;
17670;SDS011;8954;48.694;8.940;2023-09-12T09:33:37;584.13;;;545.35;;
17670;SDS011;8954;48.694;8.940;2023-09-12T09:36:03;585.65;;;546.67;;
17670;SDS011;8954;48.694;8.940;2023-09-12T09:38:30;551.50;;;513.83;;
17670;SDS011;8954;48.694;8.940;2023-09-12T09:40:56;552.55;;;514.95;;
17670;SDS011;8954;48.694;8.940;2023-09-12T09:43:22;588.58;;;549.75;;
17670;SDS011;8954;48.694;8.940;2023-09-12T09:45:50;571.15;;;532.78;;
17670;SDS011;8954;48.694;8.940;2023-09-12T09:48:19;550.92;;;513.20;;
17670;SDS011;8954;48.694;8.940;2023-09-12T09:50:46;561.60;;;523.38;;
17670;SDS011;8954;48.694;8.940;2023-09-12T09:53:12;571.33;;;532.95;;
17670;SDS011;8954;48.694;8.940;2023-09-12T09:55:38;561.55;;;523.40;;
17670;SDS011;8954;48.694;8.940;2023-09-12T09:58:07;551.88;;;514.05;;
17670;SDS011;8954;48.694;8.940;2023-09-12T10:00:38;567.58;;;529.20;;
17670;SDS011;8954;48.694;8.940;2023-09-12T10:03:05;580.88;;;542.22;;
17670;SDS011;8954;48.694;8.940;2023-09-12T10:05:33;582.35;;;543.65;;
17670;SDS011;8954;48.694;8.940;2023-09-12T10:08:02;572.15;;;533.70;;
17670;SDS011;8954;48.694;8.940;2023-09-12T10:10:30;581.33;;;542.72;;
17670;SDS011;8954;48.694;8.940;2023-09-12T10:12:59;581.97;;;543.58;;
17670;SDS011;8954;48.694;8.940;2023-09-12T10:15:29;574.38;;;536.08;;
17670;SDS011;8954;48.694;8.940;2023-09-12T10:17:56;566.95;;;528.95;;
17670;SDS011;8954;48.694;8.940;2023-09-12T10:20:25;574.58;;;536.17;;
17670;SDS011;8954;48.694;8.940;2023-09-12T10:23:00;589.80;;;551.03;;
17670;SDS011;8954;48.694;8.940;2023-09-12T10:25:34;580.15;;;541.75;;
17670;SDS011;8954;48.694;8.940;2023-09-12T10:28:02;585.33;;;546.75;;
17670;SDS011;8954;48.694;8.940;2023-09-12T10:30:29;572.38;;;534.22;;
17670;SDS011;8954;48.694;8.940;2023-09-12T10:32:56;580.20;;;541.72;;
17670;SDS011;8954;48.694;8.940;2023-09-12T10:35:22;571.22;;;532.95;;
17670;SDS011;8954;48.694;8.940;2023-09-12T10:37:48;569.22;;;530.95;;
17670;SDS011;8954;48.694;8.940;2023-09-12T10:40:15;580.72;;;542.15;;
17670;SDS011;8954;48.694;8.940;2023-09-12T10:42:42;568.38;;;530.00;;
17670;SDS011;8954;48.694;8.940;2023-09-12T10:45:09;586.08;;;547.30;;
17670;SDS011;8954;48.694;8.940;2023-09-12T10:47:38;572.25;;;534.05;;
17670;SDS011;8954;48.694;8.940;2023-09-12T10:50:04;569.58;;;531.47;;
17670;SDS011;8954;48.694;8.940;2023-09-12T10:52:31;576.45;;;538.15;;
17670;SDS011;8954;48.694;8.940;2023-09-12T10:54:57;578.15;;;539.75;;
17670;SDS011;8954;48.694;8.940;2023-09-12T10:57:23;589.30;;;550.58;;
17670;SDS011;8954;48.694;8.940;2023-09-12T11:04:59;555.75;;;517.95;;
17670;SDS011;8954;48.694;8.940;2023-09-12T11:12:45;560.22;;;522.10;;
17670;SDS011;8954;48.694;8.940;2023-09-12T11:15:13;554.53;;;516.35;;
17670;SDS011;8954;48.694;8.940;2023-09-12T11:17:43;563.75;;;525.40;;
17670;SDS011;8954;48.694;8.940;2023-09-12T11:20:10;568.13;;;529.65;;
17670;SDS011;8954;48.694;8.940;2023-09-12T11:22:38;567.03;;;528.67;;
17670;SDS011;8954;48.694;8.940;2023-09-12T11:25:24;571.13;;;532.58;;
17670;SDS011;8954;48.694;8.940;2023-09-12T11:30:20;549.47;;;511.63;;
17670;SDS011;8954;48.694;8.940;2023-09-12T11:32:49;558.08;;;519.72;;
17670;SDS011;8954;48.694;8.940;2023-09-12T11:35:16;556.80;;;518.67;;
17670;SDS011;8954;48.694;8.940;2023-09-12T11:37:50;555.35;;;517.33;;
17670;SDS011;8954;48.694;8.940;2023-09-12T11:40:27;564.20;;;525.95;;
17670;SDS011;8954;48.694;8.940;2023-09-12T11:43:21;566.03;;;527.75;;
17670;SDS011;8954;48.694;8.940;2023-09-12T11:45:48;569.55;;;531.10;;
17670;SDS011;8954;48.694;8.940;2023-09-12T11:48:14;564.45;;;526.28;;
17670;SDS011;8954;48.694;8.940;2023-09-12T11:50:42;565.25;;;527.10;;
17670;SDS011;8954;48.694;8.940;2023-09-12T11:53:18;574.55;;;535.75;;
17670;SDS011;8954;48.694;8.940;2023-09-12T11:55:46;567.80;;;529.40;;
17670;SDS011;8954;48.694;8.940;2023-09-12T11:58:14;563.85;;;525.60;;
17670;SDS011;8954;48.694;8.940;2023-09-12T12:00:45;568.50;;;529.90;;
17670;SDS011;8954;48.694;8.940;2023-09-12T12:03:24;568.75;;;530.17;;
17670;SDS011;8954;48.694;8.940;2023-09-12T12:05:51;554.42;;;516.42;;
17670;SDS011;8954;48.694;8.940;2023-09-12T12:08:18;554.40;;;516.20;;
17670;SDS011;8954;48.694;8.940;2023-09-12T12:10:48;564.78;;;526.33;;
17670;SDS011;8954;48.694;8.940;2023-09-12T12:13:18;545.20;;;507.67;;
17670;SDS011;8954;48.694;8.940;2023-09-12T12:15:44;557.65;;;519.50;;
17670;SDS011;8954;48.694;8.940;2023-09-12T12:18:10;544.42;;;506.60;;
17670;SDS011;8954;48.694;8.940;2023-09-12T12:20:36;569.40;;;530.50;;
17670;SDS011;8954;48.694;8.940;2023-09-12T12:23:05;559.88;;;521.30;;
17670;SDS011;8954;48.694;8.940;2023-09-12T12:25:32;558.40;;;519.90;;
17670;SDS011;8954;48.694;8.940;2023-09-12T12:27:59;544.63;;;506.45;;
17670;SDS011;8954;48.694;8.940;2023-09-12T12:30:25;551.42;;;512.97;;
17670;SDS011;8954;48.694;8.940;2023-09-12T12:32:55;541.63;;;503.42;;
17670;SDS011;8954;48.694;8.940;2023-09-12T12:35:21;521.42;;;483.65;;
17670;SDS011;8954;48.694;8.940;2023-09-12T12:37:49;501.67;;;464.33;;
17670;SDS011;8954;48.694;8.940;2023-09-12T12:40:15;511.55;;;473.75;;
17670;SDS011;8954;48.694;8.940;2023-09-12T12:42:44;489.27;;;451.98;;
17670;SDS011;8954;48.694;8.940;2023-09-12T12:45:17;490.52;;;453.35;;
17670;SDS011;8954;48.694;8.940;2023-09-12T12:47:44;488.88;;;451.73;;
17670;SDS011;8954;48.694;8.940;2023-09-12T12:50:14;493.50;;;456.00;;
17670;SDS011;8954;48.694;8.940;2023-09-12T12:52:41;471.02;;;434.23;;
17670;SDS011;8954;48.694;8.940;2023-09-12T12:55:10;470.25;;;433.25;;
17670;SDS011;8954;48.694;8.940;2023-09-12T12:57:37;449.98;;;413.25;;
17670;SDS011;8954;48.694;8.940;2023-09-12T13:00:08;435.88;;;399.63;;
17670;SDS011;8954;48.694;8.940;2023-09-12T13:02:36;420.48;;;384.52;;
17670;SDS011;8954;48.694;8.940;2023-09-12T13:05:06;419.15;;;383.35;;
17670;SDS011;8954;48.694;8.940;2023-09-12T13:07:44;404.77;;;369.42;;
17670;SDS011;8954;48.694;8.940;2023-09-12T13:10:10;407.15;;;371.55;;
17670;SDS011;8954;48.694;8.940;2023-09-12T13:12:36;397.33;;;362.17;;
17670;SDS011;8954;48.694;8.940;2023-09-12T13:15:03;412.35;;;376.77;;
17670;SDS011;8954;48.694;8.940;2023-09-12T13:17:29;408.27;;;372.92;;
17670;SDS011;8954;48.694;8.940;2023-09-12T13:19:55;430.90;;;394.88;;
17670;SDS011;8954;48.694;8.940;2023-09-12T13:22:20;428.25;;;392.27;;
17670;SDS011;8954;48.694;8.940;2023-09-12T13:24:46;413.92;;;378.63;;
17670;SDS011;8954;48.694;8.940;2023-09-12T13:27:13;446.95;;;410.83;;
17670;SDS011;8954;48.694;8.940;2023-09-12T13:29:39;437.60;;;401.67;;
17670;SDS011;8954;48.694;8.940;2023-09-12T13:32:05;445.67;;;409.63;;
17670;SDS011;8954;48.694;8.940;2023-09-12T13:34:31;443.65;;;407.55;;
17670;SDS011;8954;48.694;8.940;2023-09-12T13:36:57;455.35;;;418.98;;
17670;SDS011;8954;48.694;8.940;2023-09-12T13:39:24;449.55;;;413.42;;
17670;SDS011;8954;48.694;8.940;2023-09-12T13:41:50;467.85;;;431.13;;
17670;SDS011;8954;48.694;8.940;2023-09-12T13:44:16;439.23;;;403.42;;
17670;SDS011;8954;48.694;8.940;2023-09-12T13:46:42;467.10;;;430.45;;
17670;SDS011;8954;48.694;8.940;2023-09-12T13:49:11;487.42;;;450.08;;
17670;SDS011;8954;48.694;8.940;2023-09-12T13:51:36;471.98;;;435.23;;
17670;SDS011;8954;48.694;8.940;2023-09-12T13:54:03;464.00;;;427.58;;
17670;SDS011;8954;48.694;8.940;2023-09-12T13:56:28;468.40;;;431.75;;
17670;SDS011;8954;48.694;8.940;2023-09-12T13:58:54;485.67;;;448.42;;
17670;SDS011;8954;48.694;8.940;2023-09-12T14:01:20;458.88;;;422.48;;
17670;SDS011;8954;48.694;8.940;2023-09-12T14:03:47;446.92;;;410.35;;
17670;SDS011;8954;48.694;8.940;2023-09-12T14:06:13;454.30;;;417.88;;
17670;SDS011;8954;48.694;8.940;2023-09-12T14:08:39;457.75;;;421.23;;
17670;SDS011;8954;48.694;8.940;2023-09-12T14:11:04;448.75;;;412.42;;
17670;SDS011;8954;48.694;8.940;2023-09-12T14:13:30;466.50;;;429.67;;
17670;SDS011;8954;48.694;8.940;2023-09-12T14:15:56;445.52;;;409.35;;
17670;SDS011;8954;48.694;8.940;2023-09-12T14:18:21;463.77;;;427.08;;
17670;SDS011;8954;48.694;8.940;2023-09-12T14:20:47;450.50;;;414.08;;
17670;SDS011;8954;48.694;8.940;2023-09-12T14:23:12;447.33;;;410.95;;
17670;SDS011;8954;48.694;8.940;2023-09-12T14:25:38;450.88;;;414.08;;
17670;SDS011;8954;48.694;8.940;2023-09-12T14:28:04;437.10;;;400.85;;
17670;SDS011;8954;48.694;8.940;2023-09-12T14:30:31;432.40;;;396.08;;
17670;SDS011;8954;48.694;8.940;2023-09-12T14:33:00;427.35;;;391.10;;
17670;SDS011;8954;48.694;8.940;2023-09-12T14:35:26;415.67;;;379.47;;
17670;SDS011;8954;48.694;8.940;2023-09-12T14:37:52;390.77;;;355.23;;
17670;SDS011;8954;48.694;8.940;2023-09-12T14:40:18;375.70;;;340.50;;
17670;SDS011;8954;48.694;8.940;2023-09-12T14:42:43;364.10;;;329.07;;
17670;SDS011;8954;48.694;8.940;2023-09-12T14:45:10;360.00;;;325.13;;
17670;SDS011;8954;48.694;8.940;2023-09-12T14:47:36;354.07;;;319.13;;
17670;SDS011;8954;48.694;8.940;2023-09-12T14:50:02;339.10;;;304.50;;
17670;SDS011;8954;48.694;8.940;2023-09-12T14:52:29;343.87;;;309.13;;
17670;SDS011;8954;48.694;8.940;2023-09-12T14:54:55;322.37;;;288.20;;
17670;SDS011;8954;48.694;8.940;2023-09-12T14:57:23;313.63;;;279.63;;
17670;SDS011;8954;48.694;8.940;2023-09-12T14:59:50;324.90;;;290.67;;
17670;SDS011;8954;48.694;8.940;2023-09-12T15:02:16;325.50;;;291.00;;
17670;SDS011;8954;48.694;8.940;2023-09-12T15:04:41;325.63;;;291.13;;
17670;SDS011;8954;48.694;8.940;2023-09-12T15:07:08;319.80;;;285.53;;
17670;SDS011;8954;48.694;8.940;2023-09-12T15:09:34;315.40;;;281.23;;
17670;SDS011;8954;48.694;8.940;2023-09-12T15:11:59;310.70;;;276.73;;
17670;SDS011;8954;48.694;8.940;2023-09-12T15:14:25;319.37;;;285.13;;
17670;SDS011;8954;48.694;8.940;2023-09-12T15:16:51;313.40;;;279.40;;
17670;SDS011;8954;48.694;8.940;2023-09-12T15:19:17;314.97;;;280.73;;
17670;SDS011;8954;48.694;8.940;2023-09-12T15:21:44;310.37;;;276.37;;
17670;SDS011;8954;48.694;8.940;2023-09-12T15:24:10;310.63;;;276.53;;
17670;SDS011;8954;48.694;8.940;2023-09-12T15:26:35;306.10;;;271.77;;
17670;SDS011;8954;48.694;8.940;2023-09-12T15:29:02;307.47;;;271.70;;
17670;SDS011;8954;48.694;8.940;2023-09-12T15:31:27;308.93;;;274.77;;
17670;SDS011;8954;48.694;8.940;2023-09-12T15:33:53;309.10;;;271.33;;
17670;SDS011;8954;48.694;8.940;2023-09-12T15:36:21;307.07;;;267.87;;
17670;SDS011;8954;48.694;8.940;2023-09-12T15:38:47;301.80;;;246.07;;
17670;SDS011;8954;48.694;8.940;2023-09-12T15:41:14;303.70;;;247.50;;
17670;SDS011;8954;48.694;8.940;2023-09-12T15:43:40;306.33;;;251.83;;
17670;SDS011;8954;48.694;8.940;2023-09-12T15:46:06;305.53;;;242.37;;
17670;SDS011;8954;48.694;8.940;2023-09-12T15:48:32;300.27;;;226.13;;
17670;SDS011;8954;48.694;8.940;2023-09-12T15:50:58;305.17;;;239.23;;
17670;SDS011;8954;48.694;8.940;2023-09-12T15:53:24;299.33;;;221.13;;
17670;SDS011;8954;48.694;8.940;2023-09-12T15:55:50;306.97;;;239.20;;
17670;SDS011;8954;48.694;8.940;2023-09-12T15:58:17;304.67;;;232.37;;
17670;SDS011;8954;48.694;8.940;2023-09-12T16:00:44;303.63;;;233.27;;
17670;SDS011;8954;48.694;8.940;2023-09-12T16:03:09;303.47;;;229.07;;
17670;SDS011;8954;48.694;8.940;2023-09-12T16:05:39;306.20;;;238.53;;
17670;SDS011;8954;48.694;8.940;2023-09-12T16:08:05;300.73;;;219.77;;
17670;SDS011;8954;48.694;8.940;2023-09-12T16:10:31;307.20;;;241.07;;
17670;SDS011;8954;48.694;8.940;2023-09-12T16:12:57;300.17;;;219.87;;
17670;SDS011;8954;48.694;8.940;2023-09-12T16:15:23;303.77;;;229.50;;
17670;SDS011;8954;48.694;8.940;2023-09-12T16:17:49;304.03;;;231.23;;
17670;SDS011;8954;48.694;8.940;2023-09-12T16:20:15;300.27;;;216.43;;
17670;SDS011;8954;48.694;8.940;2023-09-12T16:22:41;302.00;;;225.13;;
17670;SDS011;8954;48.694;8.940;2023-09-12T16:25:08;296.87;;;212.47;;
